createdAt,value
2019-03-27T00:01:08.611Z,7.95
2019-03-27T00:03:36.583Z,7.00
2019-03-27T00:06:04.540Z,9.90
2019-03-27T00:08:32.760Z,7.45
2019-03-27T00:11:00.720Z,6.58
2019-03-27T00:13:28.851Z,5.25
2019-03-27T00:15:56.851Z,7.97
2019-03-27T00:18:27.347Z,6.72
2019-03-27T00:20:55.604Z,6.03
2019-03-27T00:23:24.836Z,7.28
2019-03-27T00:25:52.915Z,6.67
2019-03-27T00:28:39.791Z,7.03
2019-03-27T00:31:26.445Z,6.40
2019-03-27T00:34:13.215Z,9.33
2019-03-27T00:36:59.989Z,6.05
2019-03-27T00:39:46.731Z,5.55
2019-03-27T00:42:33.267Z,7.50
2019-03-27T00:45:26.408Z,4.55
2019-03-27T00:48:08.259Z,4.58
2019-03-27T00:50:54.963Z,5.28
2019-03-27T00:53:41.234Z,3.85
2019-03-27T00:56:27.887Z,3.02
2019-03-27T00:59:14.051Z,4.62
2019-03-27T01:02:00.982Z,3.95
2019-03-27T01:04:47.512Z,4.20
2019-03-27T01:07:34.196Z,2.95
2019-03-27T01:10:20.430Z,5.10
2019-03-27T01:13:07.250Z,4.20
2019-03-27T01:15:53.883Z,4.45
2019-03-27T01:18:40.735Z,2.90
2019-03-27T01:21:27.344Z,3.75
2019-03-27T01:24:14.372Z,4.03
2019-03-27T01:27:01.275Z,4.87
2019-03-27T01:29:47.983Z,3.25
2019-03-27T01:32:34.552Z,4.05
2019-03-27T01:35:20.932Z,4.03
2019-03-27T01:38:07.612Z,3.22
2019-03-27T01:40:54.232Z,4.62
2019-03-27T01:43:41.943Z,2.72
2019-03-27T01:46:28.484Z,3.12
2019-03-27T01:49:15.064Z,2.95
2019-03-27T01:52:01.652Z,3.58
2019-03-27T01:54:48.264Z,3.90
2019-03-27T01:57:37.199Z,4.15
2019-03-27T02:00:23.862Z,3.12
2019-03-27T02:03:10.717Z,3.50
2019-03-27T02:05:57.412Z,2.70
2019-03-27T02:08:44.545Z,2.40
2019-03-27T02:11:31.392Z,3.10
2019-03-27T02:14:18.436Z,2.37
2019-03-27T02:17:05.083Z,3.70
2019-03-27T02:19:52.048Z,3.10
2019-03-27T02:22:38.686Z,3.02
2019-03-27T02:25:25.405Z,2.67
2019-03-27T02:28:12.102Z,2.15
2019-03-27T02:30:59.093Z,2.70
2019-03-27T02:33:45.732Z,2.47
2019-03-27T02:36:32.948Z,2.17
2019-03-27T02:39:19.665Z,3.33
2019-03-27T02:42:06.281Z,2.25
2019-03-27T02:44:55.857Z,2.60
2019-03-27T02:47:42.605Z,2.00
2019-03-27T02:50:29.228Z,3.87
2019-03-27T02:53:15.950Z,3.05
2019-03-27T02:56:02.752Z,3.52
2019-03-27T02:58:49.877Z,2.50
2019-03-27T03:01:37.620Z,2.87
2019-03-27T03:04:24.406Z,2.45
2019-03-27T03:07:11.125Z,2.67
2019-03-27T03:09:57.890Z,2.65
2019-03-27T03:12:44.607Z,3.02
2019-03-27T03:15:31.711Z,2.08
2019-03-27T03:18:18.308Z,4.03
2019-03-27T03:21:04.701Z,1.27
2019-03-27T03:23:51.408Z,2.60
2019-03-27T03:26:38.136Z,2.90
2019-03-27T03:29:24.951Z,3.60
2019-03-27T03:32:12.377Z,3.47
2019-03-27T03:34:58.776Z,2.65
2019-03-27T03:37:45.129Z,2.75
2019-03-27T03:40:31.816Z,2.37
2019-03-27T03:43:18.473Z,3.55
2019-03-27T03:46:05.169Z,3.47
2019-03-27T03:48:51.960Z,1.90
2019-03-27T03:51:39.071Z,4.33
2019-03-27T03:54:25.899Z,2.87
2019-03-27T03:57:13.131Z,3.47
2019-03-27T04:00:02.064Z,2.12
2019-03-27T04:02:49.120Z,2.58
2019-03-27T04:05:35.968Z,2.25
2019-03-27T04:08:22.635Z,3.05
2019-03-27T04:11:09.297Z,3.42
2019-03-27T04:13:55.515Z,2.40
2019-03-27T04:16:42.120Z,2.30
2019-03-27T04:19:29.384Z,2.30
2019-03-27T04:22:15.680Z,2.08
2019-03-27T04:25:02.342Z,2.45
2019-03-27T04:27:48.921Z,3.20
2019-03-27T04:30:35.496Z,2.20
2019-03-27T04:33:22.288Z,2.02
2019-03-27T04:36:08.867Z,2.50
2019-03-27T04:38:55.696Z,1.80
2019-03-27T04:41:42.304Z,1.92
2019-03-27T04:44:28.615Z,2.65
2019-03-27T04:47:15.481Z,2.47
2019-03-27T04:50:01.735Z,2.15
2019-03-27T04:52:48.355Z,1.70
2019-03-27T04:55:34.739Z,2.37
2019-03-27T04:58:21.335Z,3.30
2019-03-27T05:01:07.998Z,2.22
2019-03-27T05:03:55.127Z,2.20
2019-03-27T05:06:44.296Z,4.00
2019-03-27T05:09:30.727Z,1.77
2019-03-27T05:12:17.050Z,4.37
2019-03-27T05:15:03.843Z,1.45
2019-03-27T05:17:50.620Z,3.40
2019-03-27T05:20:36.858Z,1.10
2019-03-27T05:23:23.647Z,2.15
2019-03-27T05:26:09.803Z,1.10
2019-03-27T05:28:56.408Z,2.30
2019-03-27T05:31:43.055Z,1.80
2019-03-27T05:34:29.385Z,1.65
2019-03-27T05:37:16.174Z,2.33
2019-03-27T05:40:03.304Z,1.75
2019-03-27T05:43:00.038Z,2.40
2019-03-27T05:45:38.103Z,2.00
2019-03-27T05:48:24.890Z,2.75
2019-03-27T05:51:11.676Z,2.35
2019-03-27T05:53:58.599Z,2.08
2019-03-27T05:56:45.173Z,2.75
2019-03-27T05:59:31.843Z,1.75
2019-03-27T06:02:18.668Z,2.12
2019-03-27T06:05:05.408Z,2.65
2019-03-27T06:07:52.248Z,2.35
2019-03-27T06:10:38.855Z,2.52
2019-03-27T06:13:25.568Z,2.65
2019-03-27T06:16:12.142Z,3.85
2019-03-27T06:18:58.535Z,2.27
2019-03-27T06:21:45.368Z,4.08
2019-03-27T06:24:32.156Z,2.40
2019-03-27T06:27:18.811Z,3.00
2019-03-27T06:30:06.439Z,3.65
2019-03-27T06:32:52.867Z,11.05
2019-03-27T06:35:39.742Z,6.55
2019-03-27T06:38:27.515Z,9.30
2019-03-27T06:41:13.667Z,7.00
2019-03-27T06:44:00.354Z,6.45
2019-03-27T06:46:47.232Z,5.45
2019-03-27T06:49:33.947Z,6.42
2019-03-27T06:52:20.221Z,5.22
2019-03-27T06:55:07.643Z,5.30
2019-03-27T06:57:54.317Z,3.40
2019-03-27T07:00:40.908Z,4.00
2019-03-27T07:03:28.060Z,4.67
2019-03-27T07:06:14.422Z,4.10
2019-03-27T07:09:01.307Z,3.70
2019-03-27T07:11:47.492Z,3.55
2019-03-27T07:14:34.651Z,3.42
2019-03-27T07:17:21.359Z,9.85
2019-03-27T07:20:08.518Z,4.37
2019-03-27T07:22:55.627Z,10.65
2019-03-27T07:25:42.231Z,5.87
2019-03-27T07:28:28.863Z,5.17
2019-03-27T07:31:15.416Z,4.40
2019-03-27T07:34:02.149Z,10.82
2019-03-27T07:36:48.919Z,6.60
2019-03-27T07:39:35.256Z,8.78
2019-03-27T07:42:21.955Z,6.28
2019-03-27T07:45:08.839Z,15.83
2019-03-27T07:47:55.720Z,6.08
2019-03-27T07:50:41.758Z,4.35
2019-03-27T07:53:28.228Z,4.95
2019-03-27T07:56:15.850Z,8.98
2019-03-27T07:59:02.646Z,7.03
2019-03-27T08:01:49.275Z,3.20
2019-03-27T08:04:36.168Z,5.92
2019-03-27T08:07:26.957Z,2.67
2019-03-27T08:10:11.147Z,3.55
2019-03-27T08:12:58.017Z,9.63
2019-03-27T08:15:44.622Z,4.25
2019-03-27T08:18:31.311Z,2.83
2019-03-27T08:21:20.267Z,3.33
2019-03-27T08:24:07.075Z,2.55
2019-03-27T08:26:53.311Z,8.88
2019-03-27T08:29:39.619Z,5.10
2019-03-27T08:32:26.393Z,4.58
2019-03-27T08:35:13.615Z,8.38
2019-03-27T08:38:00.496Z,5.85
2019-03-27T08:40:47.243Z,8.60
2019-03-27T08:43:33.917Z,6.47
2019-03-27T08:46:20.731Z,2.37
2019-03-27T08:49:20.830Z,5.78
2019-03-27T08:51:55.664Z,5.20
2019-03-27T08:54:42.536Z,4.97
2019-03-27T08:57:28.853Z,6.53
2019-03-27T09:00:16.036Z,4.22
2019-03-27T09:03:02.329Z,9.30
2019-03-27T09:05:49.433Z,6.10
2019-03-27T09:08:36.064Z,1.95
2019-03-27T09:11:23.812Z,5.30
2019-03-27T09:14:10.773Z,5.55
2019-03-27T09:16:57.579Z,8.23
2019-03-27T09:19:44.226Z,4.10
2019-03-27T09:22:31.103Z,2.92
2019-03-27T09:25:17.753Z,5.28
2019-03-27T09:28:04.547Z,3.62
2019-03-27T09:30:51.127Z,29.20
2019-03-27T09:33:19.339Z,6.10
2019-03-27T09:35:47.428Z,7.80
2019-03-27T09:38:15.604Z,9.60
2019-03-27T09:40:43.755Z,7.87
2019-03-27T09:43:11.937Z,7.20
2019-03-27T09:45:40.129Z,9.48
2019-03-27T09:48:09.915Z,12.13
2019-03-27T09:50:40.799Z,4.17
2019-03-27T09:53:08.853Z,6.85
2019-03-27T09:55:37.237Z,6.72
2019-03-27T09:58:05.622Z,6.60
2019-03-27T10:00:53.451Z,11.38
2019-03-27T10:03:21.795Z,6.97
2019-03-27T10:05:49.922Z,8.23
2019-03-27T10:08:18.068Z,7.42
2019-03-27T10:10:46.234Z,12.63
2019-03-27T10:13:14.444Z,11.40
2019-03-27T10:15:44.881Z,5.00
2019-03-27T10:18:14.051Z,9.10
2019-03-27T10:20:42.033Z,8.05
2019-03-27T10:23:10.321Z,5.03
2019-03-27T10:25:39.192Z,3.47
2019-03-27T10:28:07.240Z,4.20
2019-03-27T10:30:35.405Z,3.02
2019-03-27T10:33:03.470Z,6.15
2019-03-27T10:35:31.640Z,6.53
2019-03-27T10:38:00.065Z,6.92
2019-03-27T10:40:28.079Z,4.75
2019-03-27T10:43:17.221Z,4.78
2019-03-27T10:46:05.033Z,8.48
2019-03-27T10:48:53.156Z,4.95
2019-03-27T10:51:39.747Z,6.65
2019-03-27T10:54:27.503Z,13.83
2019-03-27T10:57:14.451Z,6.72
2019-03-27T11:00:01.080Z,9.38
2019-03-27T11:02:47.928Z,5.85
2019-03-27T11:05:34.697Z,4.58
2019-03-27T11:08:21.439Z,3.02
2019-03-27T11:11:07.565Z,8.23
2019-03-27T11:13:54.376Z,7.17
2019-03-27T11:16:41.084Z,1.80
2019-03-27T11:19:27.882Z,2.30
2019-03-27T11:22:14.672Z,2.08
2019-03-27T11:25:01.580Z,3.92
2019-03-27T11:27:49.323Z,1.35
2019-03-27T11:30:41.735Z,3.35
2019-03-27T11:33:29.058Z,1.85
2019-03-27T11:36:15.830Z,3.85
2019-03-27T11:39:04.740Z,7.08
2019-03-27T11:41:52.453Z,12.43
2019-03-27T11:44:39.214Z,5.33
2019-03-27T11:47:25.919Z,12.95
2019-03-27T11:50:12.678Z,9.25
2019-03-27T11:53:00.124Z,18.05
2019-03-27T11:55:46.419Z,13.28
2019-03-27T11:58:33.375Z,8.45
2019-03-27T12:01:19.727Z,10.53
2019-03-27T12:04:06.415Z,7.97
2019-03-27T12:06:52.992Z,11.33
2019-03-27T12:09:40.015Z,9.80
2019-03-27T12:12:26.593Z,5.55
2019-03-27T12:15:14.348Z,14.87
2019-03-27T12:18:01.889Z,9.45
2019-03-27T12:20:58.762Z,8.10
2019-03-27T12:23:36.876Z,6.35
2019-03-27T12:26:23.655Z,9.65
2019-03-27T12:29:10.395Z,3.85
2019-03-27T12:31:57.319Z,13.50
2019-03-27T12:34:43.360Z,5.35
2019-03-27T12:37:29.933Z,3.67
2019-03-27T12:40:16.619Z,14.13
2019-03-27T12:43:03.657Z,7.28
2019-03-27T12:45:50.535Z,6.40
2019-03-27T12:48:37.637Z,5.10
2019-03-27T12:51:24.396Z,5.00
2019-03-27T12:54:11.199Z,6.28
2019-03-27T12:56:57.894Z,2.92
2019-03-27T12:59:44.533Z,4.72
2019-03-27T13:02:31.005Z,6.87
2019-03-27T13:05:17.973Z,4.03
2019-03-27T13:08:04.631Z,5.30
2019-03-27T13:10:51.484Z,4.00
2019-03-27T13:13:37.981Z,4.83
2019-03-27T13:16:24.489Z,5.65
2019-03-27T13:19:14.165Z,16.10
2019-03-27T13:22:00.570Z,8.48
2019-03-27T13:24:46.915Z,4.00
2019-03-27T13:27:33.178Z,5.85
2019-03-27T13:30:19.896Z,4.20
2019-03-27T13:33:06.543Z,3.77
2019-03-27T13:35:53.169Z,4.55
2019-03-27T13:38:40.352Z,5.80
2019-03-27T13:41:27.095Z,8.23
2019-03-27T13:44:13.835Z,7.15
2019-03-27T13:47:00.149Z,4.75
2019-03-27T13:49:47.036Z,3.98
2019-03-27T13:52:35.607Z,2.75
2019-03-27T13:55:22.614Z,2.77
2019-03-27T13:58:09.230Z,4.37
2019-03-27T14:00:55.907Z,12.75
2019-03-27T14:03:42.110Z,3.33
2019-03-27T14:06:28.825Z,4.12
2019-03-27T14:09:15.618Z,5.95
2019-03-27T14:12:02.636Z,4.15
2019-03-27T14:14:50.862Z,5.80
2019-03-27T14:17:38.069Z,4.10
2019-03-27T14:20:24.851Z,5.45
2019-03-27T14:23:11.539Z,4.72
2019-03-27T14:25:57.655Z,2.95
2019-03-27T14:28:44.059Z,3.30
2019-03-27T14:31:30.639Z,4.90
2019-03-27T14:34:17.425Z,3.72
2019-03-27T14:37:04.224Z,1.47
2019-03-27T14:39:50.993Z,3.30
2019-03-27T14:42:37.663Z,3.08
2019-03-27T14:45:24.128Z,5.80
2019-03-27T14:48:10.848Z,3.12
2019-03-27T14:50:58.527Z,4.25
2019-03-27T14:53:45.328Z,1.67
2019-03-27T14:56:32.179Z,2.85
2019-03-27T14:59:18.844Z,1.90
2019-03-27T15:02:05.169Z,2.60
2019-03-27T15:04:51.904Z,1.37
2019-03-27T15:07:38.600Z,3.02
2019-03-27T15:10:24.835Z,1.17
2019-03-27T15:13:15.036Z,2.40
2019-03-27T15:15:59.642Z,1.37
2019-03-27T15:18:45.854Z,1.72
2019-03-27T15:21:33.633Z,1.90
2019-03-27T15:24:20.849Z,1.40
2019-03-27T15:27:07.420Z,4.00
2019-03-27T15:29:54.432Z,4.00
2019-03-27T15:32:42.134Z,7.90
2019-03-27T15:35:28.996Z,2.45
2019-03-27T15:38:15.873Z,3.80
2019-03-27T15:41:02.481Z,4.10
2019-03-27T15:43:49.115Z,13.70
2019-03-27T15:46:36.001Z,9.65
2019-03-27T15:49:22.615Z,10.03
2019-03-27T15:52:09.273Z,12.58
2019-03-27T15:54:56.111Z,10.43
2019-03-27T15:57:44.043Z,9.43
2019-03-27T16:00:30.631Z,6.80
2019-03-27T16:03:16.923Z,6.28
2019-03-27T16:06:03.672Z,7.90
2019-03-27T16:08:50.459Z,7.92
2019-03-27T16:11:36.623Z,7.58
2019-03-27T16:14:22.830Z,10.68
2019-03-27T16:17:13.693Z,7.40
2019-03-27T16:19:58.083Z,3.67
2019-03-27T16:22:50.655Z,7.78
2019-03-27T16:25:32.959Z,3.15
2019-03-27T16:28:19.091Z,3.50
2019-03-27T16:31:05.533Z,3.70
2019-03-27T16:33:52.229Z,5.87
2019-03-27T16:36:38.983Z,2.80
2019-03-27T16:39:25.676Z,4.97
2019-03-27T16:42:12.488Z,4.67
2019-03-27T16:44:59.248Z,2.98
2019-03-27T16:47:46.076Z,3.02
2019-03-27T16:50:32.189Z,4.30
2019-03-27T16:53:18.495Z,4.87
2019-03-27T16:56:04.854Z,5.67
2019-03-27T16:58:51.543Z,3.37
2019-03-27T17:01:39.320Z,4.12
2019-03-27T17:04:26.075Z,4.67
2019-03-27T17:07:12.748Z,3.17
2019-03-27T17:09:59.427Z,4.30
2019-03-27T17:12:45.749Z,3.12
2019-03-27T17:15:32.487Z,3.37
2019-03-27T17:18:19.153Z,4.25
2019-03-27T17:21:05.816Z,3.77
2019-03-27T17:23:52.589Z,4.60
2019-03-27T17:26:39.663Z,3.00
2019-03-27T17:29:25.985Z,2.77
2019-03-27T17:32:12.811Z,2.75
2019-03-27T17:34:59.408Z,3.67
2019-03-27T17:37:46.263Z,2.17
2019-03-27T17:40:32.469Z,2.20
2019-03-27T17:43:19.252Z,3.17
2019-03-27T17:46:05.982Z,5.75
2019-03-27T17:48:52.816Z,4.10
2019-03-27T17:51:39.397Z,4.08
2019-03-27T17:54:26.397Z,3.02
2019-03-27T17:57:12.939Z,3.00
2019-03-27T17:59:59.702Z,2.83
2019-03-27T18:02:46.536Z,5.45
2019-03-27T18:05:33.269Z,5.00
2019-03-27T18:08:20.001Z,4.90
2019-03-27T18:11:08.209Z,4.22
2019-03-27T18:13:57.184Z,5.40
2019-03-27T18:16:43.917Z,10.53
2019-03-27T18:19:30.579Z,23.25
2019-03-27T18:22:17.360Z,30.60
2019-03-27T18:25:04.702Z,31.82
2019-03-27T18:27:51.171Z,54.25
2019-03-27T18:30:38.029Z,55.55
2019-03-27T18:33:24.692Z,57.85
2019-03-27T18:36:11.364Z,55.65
2019-03-27T18:38:58.238Z,58.70
2019-03-27T18:41:44.980Z,60.20
2019-03-27T18:44:31.627Z,63.23
2019-03-27T18:47:17.960Z,66.12
2019-03-27T18:50:05.331Z,62.60
2019-03-27T18:52:51.683Z,63.80
2019-03-27T18:55:38.151Z,60.30
2019-03-27T18:58:24.955Z,58.75
2019-03-27T19:01:11.612Z,53.65
2019-03-27T19:03:58.411Z,55.67
2019-03-27T19:06:44.682Z,52.25
2019-03-27T19:09:31.305Z,52.95
2019-03-27T19:12:18.290Z,60.50
2019-03-27T19:15:05.552Z,65.72
2019-03-27T19:17:52.353Z,63.40
2019-03-27T19:20:39.224Z,61.92
2019-03-27T19:23:26.079Z,62.67
2019-03-27T19:26:12.244Z,72.00
2019-03-27T19:28:58.975Z,56.68
2019-03-27T19:31:45.536Z,55.05
2019-03-27T19:34:32.308Z,61.55
2019-03-27T19:37:18.992Z,59.90
2019-03-27T19:40:05.840Z,54.05
2019-03-27T19:42:52.297Z,48.00
2019-03-27T19:45:39.060Z,55.10
2019-03-27T19:48:25.817Z,44.98
2019-03-27T19:51:12.344Z,54.58
2019-03-27T19:53:58.747Z,41.83
2019-03-27T19:56:45.503Z,45.60
2019-03-27T19:59:31.684Z,47.70
2019-03-27T20:02:18.638Z,39.90
2019-03-27T20:05:05.608Z,61.90
2019-03-27T20:07:52.180Z,37.30
2019-03-27T20:10:38.895Z,42.98
2019-03-27T20:13:25.615Z,32.45
2019-03-27T20:16:12.164Z,37.03
2019-03-27T20:18:58.927Z,33.28
2019-03-27T20:21:45.548Z,37.30
2019-03-27T20:24:41.004Z,35.75
2019-03-27T20:27:19.947Z,39.90
2019-03-27T20:30:08.654Z,30.72
2019-03-27T20:32:55.045Z,27.90
2019-03-27T20:35:41.800Z,32.90
2019-03-27T20:38:28.640Z,31.75
2019-03-27T20:41:15.727Z,28.80
2019-03-27T20:44:02.307Z,28.07
2019-03-27T20:46:49.300Z,29.12
2019-03-27T20:49:35.948Z,25.62
2019-03-27T20:52:22.419Z,33.33
2019-03-27T20:55:09.406Z,24.82
2019-03-27T20:57:56.120Z,32.53
2019-03-27T21:00:42.796Z,23.62
2019-03-27T21:03:29.444Z,33.38
2019-03-27T21:06:16.111Z,29.35
2019-03-27T21:09:04.415Z,23.60
2019-03-27T21:11:51.227Z,22.55
2019-03-27T21:14:38.011Z,24.70
2019-03-27T21:17:24.889Z,20.43
2019-03-27T21:20:12.085Z,19.02
2019-03-27T21:22:58.661Z,20.97
2019-03-27T21:25:45.706Z,21.50
2019-03-27T21:28:33.180Z,17.42
2019-03-27T21:31:20.259Z,19.95
2019-03-27T21:34:07.039Z,16.02
2019-03-27T21:36:53.807Z,14.93
2019-03-27T21:39:40.632Z,18.52
2019-03-27T21:42:27.543Z,17.23
2019-03-27T21:45:14.203Z,17.48
2019-03-27T21:48:01.130Z,21.15
2019-03-27T21:50:47.809Z,16.23
2019-03-27T21:53:34.469Z,14.85
2019-03-27T21:56:21.287Z,14.90
2019-03-27T21:59:15.209Z,16.95
2019-03-27T22:02:03.430Z,15.13
2019-03-27T22:04:49.898Z,15.90
2019-03-27T22:07:36.543Z,15.28
2019-03-27T22:10:22.906Z,15.72
2019-03-27T22:13:09.628Z,12.40
2019-03-27T22:15:56.200Z,13.65
2019-03-27T22:18:42.851Z,15.30
2019-03-27T22:21:29.555Z,11.03
2019-03-27T22:24:16.243Z,10.98
2019-03-27T22:27:02.924Z,9.78
2019-03-27T22:29:49.623Z,10.63
2019-03-27T22:32:35.920Z,12.33
2019-03-27T22:35:22.107Z,10.35
2019-03-27T22:38:10.039Z,11.45
2019-03-27T22:40:56.680Z,10.75
2019-03-27T22:43:44.255Z,16.42
2019-03-27T22:46:30.816Z,15.43
2019-03-27T22:49:17.544Z,18.65
2019-03-27T22:52:04.495Z,17.40
2019-03-27T22:54:51.083Z,18.95
2019-03-27T22:57:37.215Z,14.87
2019-03-27T23:00:31.452Z,17.15
2019-03-27T23:03:19.738Z,15.08
2019-03-27T23:06:07.961Z,15.65
2019-03-27T23:08:54.618Z,16.27
2019-03-27T23:11:42.795Z,13.05
2019-03-27T23:14:29.431Z,17.52
2019-03-27T23:17:15.831Z,14.28
2019-03-27T23:20:02.459Z,13.62
2019-03-27T23:22:50.776Z,14.00
2019-03-27T23:25:37.480Z,14.93
2019-03-27T23:28:24.223Z,12.03
2019-03-27T23:31:11.007Z,8.98
2019-03-27T23:34:00.379Z,10.90
2019-03-27T23:36:46.093Z,10.03
2019-03-27T23:39:32.808Z,8.93
2019-03-27T23:42:19.468Z,10.98
2019-03-27T23:45:06.951Z,9.98
2019-03-27T23:47:53.137Z,8.68
2019-03-27T23:50:40.063Z,10.93
2019-03-27T23:53:27.632Z,10.50
2019-03-27T23:56:16.833Z,10.18
2019-03-27T23:59:03.656Z,9.20
